Station Historical Data
Daily Summary for September 7, 2017 Units:  Metric    English   Both
« Previous Day
Next Day »
Daily Weekly Monthly Yearly Custom
  High: Low: Average:
Temperature: 24.6 °C 11.1 °C 18.6 °C
Dew Point: 12.4 °C 6.3 °C 10.1 °C
Humidity: 91% 35% 61%
Wind Speed: 3.2km/h 0km/h 0.2km/h
Wind Gust: 8km/h - -
Wind- - SSW
Pressure: 1021.6 hPa 1018.8 hPa -
Precipitation: 0 mm    
Historical Graphs
 
 
Tabular Data for September 7, 2017
Time Temperature Dew Point Pressure Wind Wind Speed Wind Gust Humidity Rainfall Rate (Hourly) Conditions
06:15 12.4 °C 9.9 °C 1018.8 hPa Calm   1.6 km/h 85% 0 mm FEW
06:20 12.4 °C 9.9 °C 1018.8 hPa Calm   1.6 km/h 85% 0 mm FEW
06:25 12.3 °C 9.8 °C 1018.8 hPa Calm   1.6 km/h 85% 0 mm FEW
06:30 12.2 °C 9.9 °C 1018.8 hPa Calm     86% 0 mm CLR
06:35 12 °C 9.9 °C 1019.2 hPa Calm     87% 0 mm CLR
06:40 11.7 °C 9.7 °C 1019.2 hPa Calm     87% 0 mm CLR
06:45 11.6 °C 9.4 °C 1019.2 hPa Calm     87% 0 mm CLR
06:50 11.4 °C 9.4 °C 1019.2 hPa Calm   1.6 km/h 88% 0 mm CLR
06:55 11.3 °C 9.4 °C 1019.2 hPa Calm     88% 0 mm CLR
07:00 11.2 °C 9.5 °C 1019.2 hPa Calm     89% 0 mm CLR
07:05 11.2 °C 9.7 °C 1019.2 hPa Calm     90% 0 mm CLR
07:10 11.2 °C 9.6 °C 1019.5 hPa Calm     90% 0 mm CLR
07:15 11.2 °C 9.6 °C 1019.5 hPa Calm     90% 0 mm CLR
07:20 11.2 °C 9.7 °C 1019.5 hPa Calm     90% 0 mm CLR
07:25 11.2 °C 9.6 °C 1019.9 hPa Calm     90% 0 mm CLR
07:30 11.2 °C 9.6 °C 1019.9 hPa Calm     90% 0 mm CLR
07:35 11.1 °C 9.6 °C 1019.9 hPa Calm     90% 0 mm CLR
07:40 11.1 °C 9.7 °C 1019.9 hPa Calm     91% 0 mm CLR
07:45 11.1 °C 9.7 °C 1020.2 hPa Calm     91% 0 mm CLR
07:50 11.3 °C 9.9 °C 1020.2 hPa Calm     91% 0 mm CLR
07:55 11.5 °C 10.1 °C 1020.2 hPa Calm     91% 0 mm CLR
08:00 11.6 °C 10.2 °C 1020.2 hPa Calm     91% 0 mm CLR
08:05 11.9 °C 10.6 °C 1020.2 hPa Calm     91% 0 mm CLR
08:10 12.3 °C 10.6 °C 1020.5 hPa Calm     89% 0 mm CLR
08:15 12.7 °C 10.8 °C 1020.5 hPa Calm     88% 0 mm CLR
08:20 12.9 °C 10.8 °C 1020.5 hPa Calm     87% 0 mm CLR
08:25 13 °C 10.9 °C 1020.5 hPa Calm     87% 0 mm CLR
08:30 13.1 °C 11 °C 1020.5 hPa Calm     87% 0 mm CLR
08:35 13.1 °C 10.8 °C 1020.5 hPa Calm     86% 0 mm CLR
08:40 13.1 °C 10.8 °C 1020.9 hPa Calm     86% 0 mm CLR
08:45 13.2 °C 11.1 °C 1020.9 hPa Calm     87% 0 mm CLR
08:50 13.4 °C 11.3 °C 1020.9 hPa Calm     87% 0 mm CLR
08:55 13.6 °C 11.1 °C 1020.9 hPa Calm   1.6 km/h 85% 0 mm CLR
09:00 13.8 °C 11.3 °C 1020.9 hPa Calm   1.6 km/h 85% 0 mm CLR
09:10 14.2 °C 11.2 °C 1020.9 hPa Calm   1.6 km/h 82% 0 mm CLR
09:15 14.4 °C 11.2 °C 1021.2 hPa Calm   1.6 km/h 81% 0 mm CLR
09:20 14.6 °C 11 °C 1021.2 hPa Calm   1.6 km/h 79% 0 mm FEW
09:25 14.8 °C 11.2 °C 1021.2 hPa Calm     79% 0 mm FEW
09:30 15 °C 11 °C 1021.2 hPa Calm     77% 0 mm FEW
09:35 15.3 °C 11.3 °C 1021.2 hPa Calm   1.6 km/h 77% 0 mm FEW
09:40 15.5 °C 10.9 °C 1021.2 hPa SW 1.6 km/h 4.8 km/h 74% 0 mm FEW
09:45 15.7 °C 10.9 °C 1021.2 hPa Calm   1.6 km/h 73% 0 mm FEW
09:50 15.9 °C 11.1 °C 1021.2 hPa Calm   1.6 km/h 73% 0 mm FEW
09:55 16.2 °C 11.3 °C 1021.2 hPa Calm   1.6 km/h 73% 0 mm FEW
10:00 16.4 °C 11.6 °C 1021.2 hPa Calm     73% 0 mm FEW
10:10 16.8 °C 11.1 °C 1021.6 hPa Calm   1.6 km/h 69% 0 mm FEW
10:15 17 °C 11.3 °C 1021.6 hPa Calm   3.2 km/h 69% 0 mm FEW
10:20 17.2 °C 10.8 °C 1021.6 hPa Calm   1.6 km/h 66% 0 mm FEW
10:25 17.4 °C 11.4 °C 1021.6 hPa Calm     68% 0 mm FEW
10:35 18 °C 11.3 °C 1021.6 hPa Calm   1.6 km/h 65% 0 mm FEW
10:40 18.2 °C 11.1 °C 1021.6 hPa Calm   3.2 km/h 63% 0 mm FEW
10:45 18.4 °C 10.7 °C 1021.6 hPa Calm   1.6 km/h 61% 0 mm FEW
10:50 18.6 °C 10.4 °C 1021.6 hPa NE 1.6 km/h 3.2 km/h 59% 0 mm FEW
10:55 18.8 °C 11.1 °C 1021.6 hPa Calm   1.6 km/h 61% 0 mm FEW
11:00 19.1 °C 10.1 °C 1021.6 hPa Calm   1.6 km/h 56% 0 mm FEW
11:05 19.2 °C 10.5 °C 1021.6 hPa Calm     57% 0 mm FEW
11:10 19.4 °C 10.7 °C 1021.6 hPa Calm     57% 0 mm FEW
11:15 19.8 °C 10.7 °C 1021.6 hPa Calm   3.2 km/h 56% 0 mm FEW
11:20 20 °C 10.9 °C 1021.6 hPa Calm   3.2 km/h 56% 0 mm FEW
11:25 20 °C 10.1 °C 1021.6 hPa Calm   1.6 km/h 53% 0 mm FEW
11:30 20.1 °C 9.9 °C 1021.6 hPa Calm   1.6 km/h 52% 0 mm FEW
11:35 20.2 °C 9.7 °C 1021.6 hPa Calm   1.6 km/h 51% 0 mm FEW
11:40 20.3 °C 10.4 °C 1021.6 hPa Calm   1.6 km/h 53% 0 mm FEW
11:45 20.7 °C 10.2 °C 1021.6 hPa Calm   3.2 km/h 51% 0 mm FEW
11:50 20.6 °C 10.1 °C 1021.6 hPa Calm   1.6 km/h 51% 0 mm FEW
11:55 20.6 °C 9.8 °C 1021.6 hPa Calm   1.6 km/h 50% 0 mm FEW
12:00 20.9 °C 10.9 °C 1021.6 hPa Calm   1.6 km/h 53% 0 mm FEW
12:05 21.3 °C 11.1 °C 1021.6 hPa Calm   1.6 km/h 52% 0 mm FEW
12:10 21.6 °C 10.9 °C 1021.6 hPa Calm   8 km/h 51% 0 mm FEW
12:15 21.7 °C 10.8 °C 1021.6 hPa Calm   3.2 km/h 50% 0 mm FEW
12:20 21.9 °C 11 °C 1021.6 hPa NW 1.6 km/h 3.2 km/h 50% 0 mm FEW
12:25 21.9 °C 10.4 °C 1021.6 hPa WNW 1.6 km/h 3.2 km/h 48% 0 mm FEW
12:30 21.9 °C 11.9 °C 1021.6 hPa Calm   1.6 km/h 53% 0 mm FEW
12:40 23.1 °C 11.5 °C 1021.6 hPa Calm   1.6 km/h 48% 0 mm FEW
12:45 23.5 °C 11.5 °C 1021.6 hPa Calm   1.6 km/h 47% 0 mm FEW
12:50 23.4 °C 9.4 °C 1021.2 hPa West 1.6 km/h 4.8 km/h 41% 0 mm FEW
12:55 23.7 °C 10.4 °C 1021.2 hPa Calm   1.6 km/h 43% 0 mm FEW
13:00 24.3 °C 9.8 °C 1021.2 hPa Calm   1.6 km/h 40% 0 mm FEW
13:10 24.6 °C 8.5 °C 1021.2 hPa WNW 1.6 km/h 3.2 km/h 36% 0 mm FEW
13:15 24.2 °C 9 °C 1021.2 hPa Calm   4.8 km/h 38% 0 mm FEW
13:20 23.9 °C 8.7 °C 1021.2 hPa SSW 1.6 km/h 3.2 km/h 38% 0 mm FEW
13:25 23.5 °C 9.8 °C 1020.9 hPa Calm   3.2 km/h 42% 0 mm FEW
13:30 23.4 °C 8.7 °C 1020.9 hPa SE 1.6 km/h 3.2 km/h 39% 0 mm FEW
13:35 23.4 °C 9.1 °C 1020.9 hPa Calm   3.2 km/h 40% 0 mm FEW
13:40 23.7 °C 9.3 °C 1020.9 hPa South 3.2 km/h 8 km/h 40% 0 mm FEW
13:45 23.6 °C 10.6 °C 1020.9 hPa Calm   3.2 km/h 44% 0 mm FEW
13:50 23.4 °C 8.7 °C 1020.9 hPa NNE 1.6 km/h 8 km/h 39% 0 mm FEW
13:55 23.6 °C 10.2 °C 1020.9 hPa SSW 1.6 km/h 4.8 km/h 43% 0 mm FEW
14:00 23.8 °C 9.8 °C 1020.9 hPa Calm   3.2 km/h 41% 0 mm FEW
14:05 23.9 °C 10.2 °C 1020.9 hPa Calm   3.2 km/h 42% 0 mm FEW
14:10 24.2 °C 10.1 °C 1020.5 hPa Calm   1.6 km/h 41% 0 mm FEW
14:15 24.2 °C 8.2 °C 1020.9 hPa Calm   3.2 km/h 36% 0 mm FEW
14:20 24.2 °C 7.7 °C 1020.5 hPa Calm   3.2 km/h 35% 0 mm FEW
14:25 24.1 °C 8.4 °C 1020.5 hPa Calm   3.2 km/h 37% 0 mm FEW
14:30 24 °C 8.8 °C 1020.5 hPa Calm   1.6 km/h 38% 0 mm FEW
14:35 24.2 °C 9 °C 1020.5 hPa Calm   3.2 km/h 38% 0 mm FEW
14:40 24.2 °C 8.9 °C 1020.5 hPa SW 1.6 km/h 4.8 km/h 38% 0 mm FEW
14:45 24 °C 9.2 °C 1020.2 hPa WSW 1.6 km/h 4.8 km/h 39% 0 mm FEW
14:50 23.7 °C 8.9 °C 1020.2 hPa SW 1.6 km/h 3.2 km/h 39% 0 mm FEW
14:55 23.5 °C 9.1 °C 1020.2 hPa Calm   3.2 km/h 40% 0 mm FEW
15:00 23.3 °C 7.8 °C 1020.2 hPa Calm   3.2 km/h 37% 0 mm FEW
15:10 22.9 °C 7.8 °C 1020.2 hPa Calm   3.2 km/h 38% 0 mm FEW
15:15 22.8 °C 8.4 °C 1020.2 hPa Calm   1.6 km/h 40% 0 mm FEW
15:20 22.8 °C 9.2 °C 1020.2 hPa Calm   1.6 km/h 42% 0 mm FEW
15:25 22.9 °C 9.7 °C 1019.9 hPa Calm   1.6 km/h 43% 0 mm FEW
15:30 22.9 °C 8.6 °C 1019.9 hPa Calm   4.8 km/h 40% 0 mm FEW
15:35 22.8 °C 8.1 °C 1019.9 hPa Calm   4.8 km/h 39% 0 mm FEW
15:40 22.8 °C 7.3 °C 1019.9 hPa Calm   1.6 km/h 37% 0 mm FEW
15:45 22.7 °C 6.9 °C 1019.9 hPa Calm   1.6 km/h 36% 0 mm FEW
15:50 22.7 °C 6.8 °C 1019.5 hPa Calm   3.2 km/h 36% 0 mm FEW
15:55 22.7 °C 7.3 °C 1019.5 hPa West 1.6 km/h 8 km/h 37% 0 mm FEW
16:00 22.7 °C 6.8 °C 1019.5 hPa Calm   3.2 km/h 36% 0 mm FEW
16:05 22.6 °C 7.9 °C 1019.5 hPa Calm   3.2 km/h 39% 0 mm FEW
16:10 22.6 °C 6.4 °C 1019.5 hPa Calm   1.6 km/h 35% 0 mm FEW
16:15 22.5 °C 6.3 °C 1019.5 hPa Calm   4.8 km/h 35% 0 mm FEW
16:20 22.4 °C 7 °C 1019.5 hPa Calm   1.6 km/h 37% 0 mm FEW
16:25 22.5 °C 7.1 °C 1019.5 hPa Calm   3.2 km/h 37% 0 mm FEW
16:35 22.6 °C 7.9 °C 1019.5 hPa Calm   1.6 km/h 39% 0 mm FEW
16:40 22.6 °C 7.9 °C 1019.5 hPa SSE 1.6 km/h 4.8 km/h 39% 0 mm FEW
16:45 22.6 °C 7.1 °C 1019.5 hPa WSW 1.6 km/h 3.2 km/h 37% 0 mm FEW
16:50 22.5 °C 7.8 °C 1019.5 hPa Calm   1.6 km/h 39% 0 mm FEW
16:55 22.4 °C 8.2 °C 1019.5 hPa Calm   1.6 km/h 40% 0 mm FEW
17:00 22.4 °C 7.7 °C 1019.2 hPa Calm   1.6 km/h 39% 0 mm FEW
17:05 22.3 °C 8.8 °C 1019.5 hPa Calm   1.6 km/h 42% 0 mm FEW
17:10 22.3 °C 9.2 °C 1019.2 hPa Calm   1.6 km/h 43% 0 mm FEW
17:15 22.3 °C 8.4 °C 1019.2 hPa Calm   3.2 km/h 41% 0 mm FEW
17:20 22.3 °C 8.4 °C 1019.2 hPa Calm   1.6 km/h 41% 0 mm FEW
17:25 22.3 °C 8 °C 1019.2 hPa Calm   1.6 km/h 40% 0 mm FEW
17:30 22.2 °C 7.9 °C 1019.2 hPa Calm   3.2 km/h 40% 0 mm FEW
17:35 22.2 °C 7.9 °C 1019.2 hPa Calm     40% 0 mm FEW
17:40 22.2 °C 8.7 °C 1019.2 hPa Calm     42% 0 mm FEW
17:45 22.1 °C 8.2 °C 1019.5 hPa Calm     41% 0 mm FEW
17:50 21.9 °C 9.1 °C 1019.2 hPa Calm     44% 0 mm FEW
17:55 21.9 °C 9.7 °C 1019.5 hPa Calm     46% 0 mm FEW
18:00 21.8 °C 8.9 °C 1019.5 hPa Calm   3.2 km/h 44% 0 mm FEW
18:10 21.5 °C 8.7 °C 1019.5 hPa Calm   1.6 km/h 44% 0 mm FEW
18:15 21.4 °C 9.6 °C 1019.5 hPa Calm     47% 0 mm FEW
18:20 21.2 °C 9.2 °C 1019.5 hPa Calm   1.6 km/h 46% 0 mm CLR
18:25 21.1 °C 8.9 °C 1019.5 hPa Calm   1.6 km/h 46% 0 mm CLR
18:30 20.9 °C 8.5 °C 1019.5 hPa Calm     45% 0 mm CLR
18:35 20.8 °C 9.9 °C 1019.5 hPa Calm     50% 0 mm CLR
18:40 20.6 °C 10.1 °C 1019.5 hPa Calm   1.6 km/h 51% 0 mm CLR
18:45 20.4 °C 9.9 °C 1019.5 hPa Calm   1.6 km/h 51% 0 mm CLR
18:55 20.1 °C 9.6 °C 1019.5 hPa Calm   1.6 km/h 51% 0 mm CLR
19:00 19.9 °C 9.8 °C 1019.5 hPa Calm   1.6 km/h 52% 0 mm CLR
19:05 19.8 °C 9.9 °C 1019.2 hPa Calm   1.6 km/h 53% 0 mm CLR
19:10 19.8 °C 10.2 °C 1019.2 hPa Calm   1.6 km/h 54% 0 mm CLR
19:15 19.7 °C 10.4 °C 1019.2 hPa Calm   1.6 km/h 55% 0 mm CLR
19:20 19.6 °C 10.6 °C 1019.2 hPa Calm   1.6 km/h 56% 0 mm FEW
19:25 19.4 °C 10.4 °C 1019.2 hPa Calm     56% 0 mm FEW
19:30 19.3 °C 10.6 °C 1019.2 hPa Calm     57% 0 mm FEW
19:35 19.1 °C 10.7 °C 1019.2 hPa Calm     58% 0 mm FEW
19:40 18.9 °C 11 °C 1019.2 hPa Calm   1.6 km/h 60% 0 mm FEW
19:45 18.8 °C 10.9 °C 1019.2 hPa Calm     60% 0 mm FEW
19:50 18.8 °C 10.8 °C 1019.2 hPa Calm   1.6 km/h 60% 0 mm FEW
20:00 18.7 °C 11.2 °C 1019.5 hPa Calm     62% 0 mm FEW
20:05 18.6 °C 11.3 °C 1019.2 hPa Calm     63% 0 mm FEW
20:10 18.4 °C 11.7 °C 1019.5 hPa Calm     65% 0 mm FEW
20:15 18.2 °C 11.6 °C 1019.5 hPa Calm     65% 0 mm FEW
20:20 18.1 °C 11.6 °C 1019.5 hPa Calm     66% 0 mm FEW
20:25 17.9 °C 11.3 °C 1019.5 hPa Calm     65% 0 mm FEW
20:30 17.8 °C 11.3 °C 1019.5 hPa Calm     66% 0 mm FEW
20:40 17.6 °C 11.3 °C 1019.5 hPa Calm     67% 0 mm FEW
20:45 17.4 °C 11.2 °C 1019.9 hPa Calm     67% 0 mm FEW
20:50 17.3 °C 11.6 °C 1019.9 hPa Calm     69% 0 mm FEW
20:55 17.1 °C 11.6 °C 1019.9 hPa Calm     70% 0 mm FEW
21:00 16.9 °C 11.9 °C 1019.9 hPa Calm     72% 0 mm FEW
21:10 16.8 °C 11.5 °C 1020.2 hPa Calm     71% 0 mm FEW
21:15 16.7 °C 11.4 °C 1020.2 hPa Calm     71% 0 mm FEW
21:20 16.7 °C 11.8 °C 1020.2 hPa Calm     73% 0 mm CLR
21:25 16.6 °C 11.7 °C 1020.2 hPa Calm     73% 0 mm CLR
21:30 16.5 °C 11.9 °C 1020.2 hPa Calm     74% 0 mm CLR
21:35 16.4 °C 11.8 °C 1020.2 hPa Calm     74% 0 mm CLR
21:40 16.3 °C 12.1 °C 1020.2 hPa Calm     76% 0 mm CLR
21:50 16.2 °C 12.2 °C 1020.2 hPa Calm     77% 0 mm CLR
22:00 15.9 °C 12.1 °C 1020.5 hPa Calm     78% 0 mm CLR
22:10 15.8 °C 12 °C 1020.5 hPa Calm     78% 0 mm CLR
22:15 15.8 °C 12.2 °C 1020.5 hPa Calm     79% 0 mm CLR
22:20 15.7 °C 12.1 °C 1020.5 hPa Calm     79% 0 mm CLR
22:25 15.7 °C 12 °C 1020.5 hPa Calm     79% 0 mm CLR
22:30 15.6 °C 12.2 °C 1020.9 hPa Calm     80% 0 mm CLR
22:35 15.6 °C 12.1 °C 1020.9 hPa Calm     80% 0 mm CLR
22:40 15.4 °C 12.1 °C 1020.9 hPa Calm     80% 0 mm CLR
22:45 15.4 °C 12.2 °C 1020.9 hPa Calm     81% 0 mm CLR
22:50 15.3 °C 12.3 °C 1020.9 hPa Calm     82% 0 mm CLR
22:55 15.3 °C 12.4 °C 1020.9 hPa Calm     83% 0 mm CLR
23:00 15.2 °C 12 °C 1020.9 hPa Calm     81% 0 mm CLR
23:05 15.2 °C 12.1 °C 1020.9 hPa Calm     82% 0 mm CLR
23:10 15.2 °C 12.3 °C 1020.9 hPa Calm     83% 0 mm CLR
23:20 15.1 °C 12 °C 1020.9 hPa Calm     82% 0 mm CLR
23:30 14.9 °C 12.1 °C 1021.2 hPa Calm     83% 0 mm CLR
23:40 14.8 °C 12.2 °C 1021.2 hPa Calm     84% 0 mm CLR
23:45 14.8 °C 11.9 °C 1021.2 hPa Calm     83% 0 mm CLR
23:50 14.8 °C 12.1 °C 1021.2 hPa Calm     84% 0 mm CLR
23:55 14.8 °C 11.7 °C 1021.2 hPa Calm     82% 0 mm CLR
Piedmont Bend
Compliments of Weather Underground - 2 mb